sensor_id;sensor_type;location;lat;lon;timestamp;P1;durP1;ratioP1;P2;durP2;ratioP2
10667;SDS011;5382;42.136;24.796;2023-04-25T00:00:20;2.67;;;1.83;;
10667;SDS011;5382;42.136;24.796;2023-04-25T00:02:46;3.17;;;1.92;;
10667;SDS011;5382;42.136;24.796;2023-04-25T00:05:13;2.03;;;1.60;;
10667;SDS011;5382;42.136;24.796;2023-04-25T00:07:42;2.08;;;1.88;;
10667;SDS011;5382;42.136;24.796;2023-04-25T00:10:09;2.20;;;1.98;;
10667;SDS011;5382;42.136;24.796;2023-04-25T00:12:37;2.10;;;2.00;;
10667;SDS011;5382;42.136;24.796;2023-04-25T00:15:04;1.90;;;1.80;;
10667;SDS011;5382;42.136;24.796;2023-04-25T00:17:32;2.53;;;1.60;;
10667;SDS011;5382;42.136;24.796;2023-04-25T00:19:59;3.25;;;2.72;;
10667;SDS011;5382;42.136;24.796;2023-04-25T00:22:30;3.63;;;2.67;;
10667;SDS011;5382;42.136;24.796;2023-04-25T00:24:58;3.70;;;2.28;;
10667;SDS011;5382;42.136;24.796;2023-04-25T00:27:25;2.78;;;2.08;;
10667;SDS011;5382;42.136;24.796;2023-04-25T00:29:52;2.50;;;2.30;;
10667;SDS011;5382;42.136;24.796;2023-04-25T00:32:19;3.00;;;2.50;;
10667;SDS011;5382;42.136;24.796;2023-04-25T00:34:45;2.60;;;2.40;;
10667;SDS011;5382;42.136;24.796;2023-04-25T00:37:12;2.30;;;2.10;;
10667;SDS011;5382;42.136;24.796;2023-04-25T00:39:39;3.70;;;2.42;;
10667;SDS011;5382;42.136;24.796;2023-04-25T00:42:07;3.20;;;2.90;;
10667;SDS011;5382;42.136;24.796;2023-04-25T00:44:34;3.03;;;2.80;;
10667;SDS011;5382;42.136;24.796;2023-04-25T00:47:01;3.80;;;3.50;;
10667;SDS011;5382;42.136;24.796;2023-04-25T00:49:28;3.58;;;3.28;;
10667;SDS011;5382;42.136;24.796;2023-04-25T00:51:55;3.47;;;3.03;;
10667;SDS011;5382;42.136;24.796;2023-04-25T00:54:22;4.45;;;3.22;;
10667;SDS011;5382;42.136;24.796;2023-04-25T00:56:49;3.53;;;3.22;;
10667;SDS011;5382;42.136;24.796;2023-04-25T00:59:18;4.25;;;3.38;;
10667;SDS011;5382;42.136;24.796;2023-04-25T01:01:45;3.90;;;3.60;;
10667;SDS011;5382;42.136;24.796;2023-04-25T01:04:12;3.10;;;2.70;;
10667;SDS011;5382;42.136;24.796;2023-04-25T01:06:39;3.78;;;3.47;;
10667;SDS011;5382;42.136;24.796;2023-04-25T01:09:06;3.90;;;3.38;;
10667;SDS011;5382;42.136;24.796;2023-04-25T01:11:34;3.10;;;2.80;;
10667;SDS011;5382;42.136;24.796;2023-04-25T01:14:01;3.20;;;2.33;;
10667;SDS011;5382;42.136;24.796;2023-04-25T01:16:29;3.65;;;3.35;;
10667;SDS011;5382;42.136;24.796;2023-04-25T01:18:57;4.03;;;3.60;;
10667;SDS011;5382;42.136;24.796;2023-04-25T01:21:25;4.28;;;3.33;;
10667;SDS011;5382;42.136;24.796;2023-04-25T01:23:54;4.07;;;3.78;;
10667;SDS011;5382;42.136;24.796;2023-04-25T01:26:22;3.95;;;3.55;;
10667;SDS011;5382;42.136;24.796;2023-04-25T01:28:49;5.88;;;3.47;;
10667;SDS011;5382;42.136;24.796;2023-04-25T01:31:16;3.95;;;2.60;;
10667;SDS011;5382;42.136;24.796;2023-04-25T01:33:44;3.40;;;3.10;;
10667;SDS011;5382;42.136;24.796;2023-04-25T01:36:11;4.93;;;3.65;;
10667;SDS011;5382;42.136;24.796;2023-04-25T01:38:41;4.10;;;3.70;;
10667;SDS011;5382;42.136;24.796;2023-04-25T01:41:09;4.82;;;3.42;;
10667;SDS011;5382;42.136;24.796;2023-04-25T01:43:36;4.28;;;3.88;;
10667;SDS011;5382;42.136;24.796;2023-04-25T01:46:03;8.70;;;3.80;;
10667;SDS011;5382;42.136;24.796;2023-04-25T01:48:30;3.45;;;3.15;;
10667;SDS011;5382;42.136;24.796;2023-04-25T01:50:57;3.85;;;3.55;;
10667;SDS011;5382;42.136;24.796;2023-04-25T01:53:24;4.00;;;3.63;;
10667;SDS011;5382;42.136;24.796;2023-04-25T01:55:53;4.00;;;3.60;;
10667;SDS011;5382;42.136;24.796;2023-04-25T01:58:19;3.83;;;3.53;;
10667;SDS011;5382;42.136;24.796;2023-04-25T02:00:46;4.10;;;3.63;;
10667;SDS011;5382;42.136;24.796;2023-04-25T02:03:13;4.35;;;3.95;;
10667;SDS011;5382;42.136;24.796;2023-04-25T02:05:40;4.35;;;3.95;;
10667;SDS011;5382;42.136;24.796;2023-04-25T02:08:07;4.18;;;3.78;;
10667;SDS011;5382;42.136;24.796;2023-04-25T02:10:36;4.05;;;3.65;;
10667;SDS011;5382;42.136;24.796;2023-04-25T02:13:04;3.90;;;3.50;;
10667;SDS011;5382;42.136;24.796;2023-04-25T02:15:31;4.30;;;3.00;;
10667;SDS011;5382;42.136;24.796;2023-04-25T02:17:58;5.07;;;4.55;;
10667;SDS011;5382;42.136;24.796;2023-04-25T02:20:25;4.75;;;4.10;;
10667;SDS011;5382;42.136;24.796;2023-04-25T02:22:53;5.18;;;4.47;;
10667;SDS011;5382;42.136;24.796;2023-04-25T02:25:20;6.22;;;4.50;;
10667;SDS011;5382;42.136;24.796;2023-04-25T02:27:47;5.72;;;4.68;;
10667;SDS011;5382;42.136;24.796;2023-04-25T02:30:17;6.13;;;5.53;;
10667;SDS011;5382;42.136;24.796;2023-04-25T02:32:45;7.07;;;6.05;;
10667;SDS011;5382;42.136;24.796;2023-04-25T02:35:12;7.43;;;6.72;;
10667;SDS011;5382;42.136;24.796;2023-04-25T02:37:39;6.82;;;6.18;;
10667;SDS011;5382;42.136;24.796;2023-04-25T02:40:06;9.82;;;8.57;;
10667;SDS011;5382;42.136;24.796;2023-04-25T02:42:34;11.20;;;8.48;;
10667;SDS011;5382;42.136;24.796;2023-04-25T02:45:01;8.73;;;7.32;;
10667;SDS011;5382;42.136;24.796;2023-04-25T02:47:29;8.60;;;7.80;;
10667;SDS011;5382;42.136;24.796;2023-04-25T02:49:56;9.73;;;8.73;;
10667;SDS011;5382;42.136;24.796;2023-04-25T02:52:23;8.43;;;7.63;;
10667;SDS011;5382;42.136;24.796;2023-04-25T02:54:50;8.60;;;7.80;;
10667;SDS011;5382;42.136;24.796;2023-04-25T02:57:17;9.20;;;8.30;;
10667;SDS011;5382;42.136;24.796;2023-04-25T02:59:44;8.75;;;7.72;;
10667;SDS011;5382;42.136;24.796;2023-04-25T03:02:10;8.65;;;7.78;;
10667;SDS011;5382;42.136;24.796;2023-04-25T03:04:38;8.75;;;7.93;;
10667;SDS011;5382;42.136;24.796;2023-04-25T03:07:05;7.88;;;7.07;;
10667;SDS011;5382;42.136;24.796;2023-04-25T03:09:32;6.88;;;6.25;;
10667;SDS011;5382;42.136;24.796;2023-04-25T03:11:59;7.10;;;5.57;;
10667;SDS011;5382;42.136;24.796;2023-04-25T03:14:26;8.48;;;5.55;;
10667;SDS011;5382;42.136;24.796;2023-04-25T03:16:53;7.57;;;6.85;;
10667;SDS011;5382;42.136;24.796;2023-04-25T03:19:20;7.60;;;6.90;;
10667;SDS011;5382;42.136;24.796;2023-04-25T03:21:48;7.65;;;6.95;;
10667;SDS011;5382;42.136;24.796;2023-04-25T03:24:14;6.15;;;5.55;;
10667;SDS011;5382;42.136;24.796;2023-04-25T03:26:41;7.57;;;5.63;;
10667;SDS011;5382;42.136;24.796;2023-04-25T03:29:08;9.52;;;8.45;;
10667;SDS011;5382;42.136;24.796;2023-04-25T03:31:35;8.98;;;6.13;;
10667;SDS011;5382;42.136;24.796;2023-04-25T03:34:01;7.97;;;7.18;;
10667;SDS011;5382;42.136;24.796;2023-04-25T03:36:28;8.75;;;6.13;;
10667;SDS011;5382;42.136;24.796;2023-04-25T03:38:57;7.70;;;6.60;;
10667;SDS011;5382;42.136;24.796;2023-04-25T03:41:23;8.55;;;7.72;;
10667;SDS011;5382;42.136;24.796;2023-04-25T03:43:50;8.57;;;6.75;;
10667;SDS011;5382;42.136;24.796;2023-04-25T03:46:17;7.68;;;6.90;;
10667;SDS011;5382;42.136;24.796;2023-04-25T03:48:43;7.07;;;6.00;;
10667;SDS011;5382;42.136;24.796;2023-04-25T03:51:10;8.95;;;7.63;;
10667;SDS011;5382;42.136;24.796;2023-04-25T03:53:37;8.02;;;7.22;;
10667;SDS011;5382;42.136;24.796;2023-04-25T03:56:06;8.82;;;7.68;;
10667;SDS011;5382;42.136;24.796;2023-04-25T03:58:32;7.75;;;6.90;;
10667;SDS011;5382;42.136;24.796;2023-04-25T04:01:00;9.20;;;7.70;;
10667;SDS011;5382;42.136;24.796;2023-04-25T04:03:28;6.85;;;5.40;;
10667;SDS011;5382;42.136;24.796;2023-04-25T04:05:54;8.38;;;7.55;;
10667;SDS011;5382;42.136;24.796;2023-04-25T04:08:21;8.18;;;7.38;;
10667;SDS011;5382;42.136;24.796;2023-04-25T04:10:48;7.82;;;7.07;;
10667;SDS011;5382;42.136;24.796;2023-04-25T04:13:16;9.48;;;7.55;;
10667;SDS011;5382;42.136;24.796;2023-04-25T04:15:43;7.72;;;6.90;;
10667;SDS011;5382;42.136;24.796;2023-04-25T04:18:10;8.07;;;7.28;;
10667;SDS011;5382;42.136;24.796;2023-04-25T04:20:36;8.73;;;7.38;;
10667;SDS011;5382;42.136;24.796;2023-04-25T04:23:03;8.32;;;7.10;;
10667;SDS011;5382;42.136;24.796;2023-04-25T04:25:30;7.45;;;6.30;;
10667;SDS011;5382;42.136;24.796;2023-04-25T04:27:57;8.93;;;7.07;;
10667;SDS011;5382;42.136;24.796;2023-04-25T04:30:25;7.53;;;6.82;;
10667;SDS011;5382;42.136;24.796;2023-04-25T04:32:54;8.00;;;7.28;;
10667;SDS011;5382;42.136;24.796;2023-04-25T04:35:21;7.57;;;6.88;;
10667;SDS011;5382;42.136;24.796;2023-04-25T04:37:49;7.82;;;7.03;;
10667;SDS011;5382;42.136;24.796;2023-04-25T04:40:15;7.68;;;6.90;;
10667;SDS011;5382;42.136;24.796;2023-04-25T04:42:43;8.13;;;6.60;;
10667;SDS011;5382;42.136;24.796;2023-04-25T04:45:10;8.27;;;7.28;;
10667;SDS011;5382;42.136;24.796;2023-04-25T04:47:39;8.48;;;7.13;;
10667;SDS011;5382;42.136;24.796;2023-04-25T04:50:07;7.97;;;7.18;;
10667;SDS011;5382;42.136;24.796;2023-04-25T04:52:34;6.60;;;5.90;;
10667;SDS011;5382;42.136;24.796;2023-04-25T04:55:02;8.38;;;7.20;;
10667;SDS011;5382;42.136;24.796;2023-04-25T04:57:29;8.00;;;7.20;;
10667;SDS011;5382;42.136;24.796;2023-04-25T04:59:56;9.32;;;7.45;;
10667;SDS011;5382;42.136;24.796;2023-04-25T05:02:23;7.72;;;7.03;;
10667;SDS011;5382;42.136;24.796;2023-04-25T05:04:51;8.73;;;7.82;;
10667;SDS011;5382;42.136;24.796;2023-04-25T05:07:18;8.80;;;7.90;;
10667;SDS011;5382;42.136;24.796;2023-04-25T05:09:45;9.50;;;7.88;;
10667;SDS011;5382;42.136;24.796;2023-04-25T05:12:12;10.98;;;8.52;;
10667;SDS011;5382;42.136;24.796;2023-04-25T05:14:38;9.85;;;8.15;;
10667;SDS011;5382;42.136;24.796;2023-04-25T05:17:05;12.15;;;8.75;;
10667;SDS011;5382;42.136;24.796;2023-04-25T05:19:33;9.30;;;7.20;;
10667;SDS011;5382;42.136;24.796;2023-04-25T05:22:01;11.40;;;6.82;;
10667;SDS011;5382;42.136;24.796;2023-04-25T05:24:28;11.10;;;8.30;;
10667;SDS011;5382;42.136;24.796;2023-04-25T05:26:56;9.32;;;8.35;;
10667;SDS011;5382;42.136;24.796;2023-04-25T05:29:24;10.07;;;7.28;;
10667;SDS011;5382;42.136;24.796;2023-04-25T05:31:51;11.98;;;7.80;;
10667;SDS011;5382;42.136;24.796;2023-04-25T05:34:18;8.48;;;7.60;;
10667;SDS011;5382;42.136;24.796;2023-04-25T05:36:44;10.45;;;7.88;;
10667;SDS011;5382;42.136;24.796;2023-04-25T05:39:14;12.77;;;8.52;;
10667;SDS011;5382;42.136;24.796;2023-04-25T05:41:41;9.60;;;8.02;;
10667;SDS011;5382;42.136;24.796;2023-04-25T05:44:08;14.98;;;8.65;;
10667;SDS011;5382;42.136;24.796;2023-04-25T05:46:35;14.68;;;8.82;;
10667;SDS011;5382;42.136;24.796;2023-04-25T05:49:02;11.13;;;8.48;;
10667;SDS011;5382;42.136;24.796;2023-04-25T05:51:29;12.18;;;9.65;;
10667;SDS011;5382;42.136;24.796;2023-04-25T05:53:56;9.40;;;8.20;;
10667;SDS011;5382;42.136;24.796;2023-04-25T05:56:24;10.93;;;8.05;;
10667;SDS011;5382;42.136;24.796;2023-04-25T05:58:51;9.38;;;8.15;;
10667;SDS011;5382;42.136;24.796;2023-04-25T06:01:18;8.95;;;8.05;;
10667;SDS011;5382;42.136;24.796;2023-04-25T06:03:45;9.27;;;7.63;;
10667;SDS011;5382;42.136;24.796;2023-04-25T06:06:12;11.55;;;8.25;;
10667;SDS011;5382;42.136;24.796;2023-04-25T06:08:39;8.57;;;7.78;;
10667;SDS011;5382;42.136;24.796;2023-04-25T06:11:06;8.65;;;6.70;;
10667;SDS011;5382;42.136;24.796;2023-04-25T06:13:35;6.97;;;5.57;;
10667;SDS011;5382;42.136;24.796;2023-04-25T06:16:01;7.38;;;5.60;;
10667;SDS011;5382;42.136;24.796;2023-04-25T06:18:28;8.85;;;5.65;;
10667;SDS011;5382;42.136;24.796;2023-04-25T06:20:55;7.85;;;6.85;;
10667;SDS011;5382;42.136;24.796;2023-04-25T06:23:22;7.60;;;5.82;;
10667;SDS011;5382;42.136;24.796;2023-04-25T06:25:49;8.05;;;7.03;;
10667;SDS011;5382;42.136;24.796;2023-04-25T06:28:15;10.32;;;7.93;;
10667;SDS011;5382;42.136;24.796;2023-04-25T06:30:43;8.05;;;7.07;;
10667;SDS011;5382;42.136;24.796;2023-04-25T06:33:10;7.43;;;6.53;;
10667;SDS011;5382;42.136;24.796;2023-04-25T06:35:37;10.25;;;7.47;;
10667;SDS011;5382;42.136;24.796;2023-04-25T06:38:04;9.30;;;7.28;;
10667;SDS011;5382;42.136;24.796;2023-04-25T06:40:31;10.70;;;7.18;;
10667;SDS011;5382;42.136;24.796;2023-04-25T06:42:57;8.65;;;7.70;;
10667;SDS011;5382;42.136;24.796;2023-04-25T06:45:24;10.13;;;8.25;;
10667;SDS011;5382;42.136;24.796;2023-04-25T06:47:52;9.85;;;8.32;;
10667;SDS011;5382;42.136;24.796;2023-04-25T06:50:19;10.80;;;8.25;;
10667;SDS011;5382;42.136;24.796;2023-04-25T06:52:46;9.70;;;8.50;;
10667;SDS011;5382;42.136;24.796;2023-04-25T06:55:13;8.85;;;7.95;;
10667;SDS011;5382;42.136;24.796;2023-04-25T06:57:40;8.77;;;7.88;;
10667;SDS011;5382;42.136;24.796;2023-04-25T07:00:07;6.85;;;6.00;;
10667;SDS011;5382;42.136;24.796;2023-04-25T07:02:34;8.85;;;7.43;;
10667;SDS011;5382;42.136;24.796;2023-04-25T07:05:03;7.60;;;6.90;;
10667;SDS011;5382;42.136;24.796;2023-04-25T07:07:30;7.47;;;6.78;;
10667;SDS011;5382;42.136;24.796;2023-04-25T07:09:57;7.35;;;6.65;;
10667;SDS011;5382;42.136;24.796;2023-04-25T07:12:24;10.05;;;6.65;;
10667;SDS011;5382;42.136;24.796;2023-04-25T07:14:51;8.82;;;7.20;;
10667;SDS011;5382;42.136;24.796;2023-04-25T07:17:18;9.38;;;8.00;;
10667;SDS011;5382;42.136;24.796;2023-04-25T07:19:44;9.20;;;7.25;;
10667;SDS011;5382;42.136;24.796;2023-04-25T07:22:12;7.72;;;6.93;;
10667;SDS011;5382;42.136;24.796;2023-04-25T07:24:39;7.75;;;6.95;;
10667;SDS011;5382;42.136;24.796;2023-04-25T07:27:06;8.50;;;6.55;;
10667;SDS011;5382;42.136;24.796;2023-04-25T07:29:33;8.95;;;5.97;;
10667;SDS011;5382;42.136;24.796;2023-04-25T07:32:02;7.60;;;6.90;;
10667;SDS011;5382;42.136;24.796;2023-04-25T07:34:29;8.00;;;7.22;;
10667;SDS011;5382;42.136;24.796;2023-04-25T07:36:57;8.40;;;7.00;;
10667;SDS011;5382;42.136;24.796;2023-04-25T07:39:26;10.00;;;6.93;;
10667;SDS011;5382;42.136;24.796;2023-04-25T07:41:52;8.23;;;6.78;;
10667;SDS011;5382;42.136;24.796;2023-04-25T07:44:19;7.63;;;6.88;;
10667;SDS011;5382;42.136;24.796;2023-04-25T07:46:46;9.63;;;7.05;;
10667;SDS011;5382;42.136;24.796;2023-04-25T07:49:13;9.63;;;7.40;;
10667;SDS011;5382;42.136;24.796;2023-04-25T07:51:40;11.63;;;7.25;;
10667;SDS011;5382;42.136;24.796;2023-04-25T07:54:08;8.02;;;7.22;;
10667;SDS011;5382;42.136;24.796;2023-04-25T07:56:36;8.93;;;8.02;;
10667;SDS011;5382;42.136;24.796;2023-04-25T07:59:03;7.88;;;6.80;;
10667;SDS011;5382;42.136;24.796;2023-04-25T08:01:30;9.73;;;6.50;;
10667;SDS011;5382;42.136;24.796;2023-04-25T08:03:57;7.25;;;6.53;;
10667;SDS011;5382;42.136;24.796;2023-04-25T08:06:24;7.68;;;6.93;;
10667;SDS011;5382;42.136;24.796;2023-04-25T08:08:50;8.48;;;6.57;;
10667;SDS011;5382;42.136;24.796;2023-04-25T08:11:17;7.50;;;6.80;;
10667;SDS011;5382;42.136;24.796;2023-04-25T08:13:45;9.88;;;7.00;;
10667;SDS011;5382;42.136;24.796;2023-04-25T08:16:12;8.13;;;6.75;;
10667;SDS011;5382;42.136;24.796;2023-04-25T08:18:39;11.55;;;6.88;;
10667;SDS011;5382;42.136;24.796;2023-04-25T08:21:06;8.98;;;6.97;;
10667;SDS011;5382;42.136;24.796;2023-04-25T08:23:34;12.68;;;7.57;;
10667;SDS011;5382;42.136;24.796;2023-04-25T08:26:00;8.60;;;6.78;;
10667;SDS011;5382;42.136;24.796;2023-04-25T08:28:28;9.00;;;6.93;;
10667;SDS011;5382;42.136;24.796;2023-04-25T08:30:56;7.82;;;6.88;;
10667;SDS011;5382;42.136;24.796;2023-04-25T08:33:23;8.85;;;6.85;;
10667;SDS011;5382;42.136;24.796;2023-04-25T08:35:50;8.40;;;6.80;;
10667;SDS011;5382;42.136;24.796;2023-04-25T08:38:18;7.78;;;6.60;;
10667;SDS011;5382;42.136;24.796;2023-04-25T08:40:45;7.80;;;6.82;;
10667;SDS011;5382;42.136;24.796;2023-04-25T08:43:17;8.70;;;6.20;;
10667;SDS011;5382;42.136;24.796;2023-04-25T08:45:46;7.07;;;6.38;;
10667;SDS011;5382;42.136;24.796;2023-04-25T08:48:15;7.85;;;5.85;;
10667;SDS011;5382;42.136;24.796;2023-04-25T08:50:44;7.43;;;6.13;;
10667;SDS011;5382;42.136;24.796;2023-04-25T08:53:16;7.32;;;5.95;;
10667;SDS011;5382;42.136;24.796;2023-04-25T08:55:45;8.20;;;6.22;;
10667;SDS011;5382;42.136;24.796;2023-04-25T08:58:12;6.80;;;6.18;;
10667;SDS011;5382;42.136;24.796;2023-04-25T09:00:39;14.40;;;5.82;;
10667;SDS011;5382;42.136;24.796;2023-04-25T09:03:06;9.52;;;5.53;;
10667;SDS011;5382;42.136;24.796;2023-04-25T09:05:35;11.18;;;4.93;;
10667;SDS011;5382;42.136;24.796;2023-04-25T09:08:02;5.75;;;3.85;;
10667;SDS011;5382;42.136;24.796;2023-04-25T09:10:29;6.82;;;3.53;;
10667;SDS011;5382;42.136;24.796;2023-04-25T09:13:02;4.78;;;3.47;;
10667;SDS011;5382;42.136;24.796;2023-04-25T09:15:31;4.13;;;3.05;;
10667;SDS011;5382;42.136;24.796;2023-04-25T09:17:58;5.78;;;3.20;;
10667;SDS011;5382;42.136;24.796;2023-04-25T09:20:25;6.78;;;3.22;;
10667;SDS011;5382;42.136;24.796;2023-04-25T09:23:02;2.80;;;2.60;;
10667;SDS011;5382;42.136;24.796;2023-04-25T09:25:33;3.58;;;2.75;;
10667;SDS011;5382;42.136;24.796;2023-04-25T09:28:03;4.50;;;2.75;;
10667;SDS011;5382;42.136;24.796;2023-04-25T09:30:31;4.80;;;2.40;;
10667;SDS011;5382;42.136;24.796;2023-04-25T09:33:03;4.70;;;2.75;;
10667;SDS011;5382;42.136;24.796;2023-04-25T09:35:35;3.58;;;2.65;;
10667;SDS011;5382;42.136;24.796;2023-04-25T09:38:07;5.35;;;3.00;;
10667;SDS011;5382;42.136;24.796;2023-04-25T09:40:38;3.85;;;2.80;;
10667;SDS011;5382;42.136;24.796;2023-04-25T09:43:08;6.60;;;3.33;;
10667;SDS011;5382;42.136;24.796;2023-04-25T09:45:40;5.00;;;3.70;;
10667;SDS011;5382;42.136;24.796;2023-04-25T09:48:10;5.22;;;3.45;;
10667;SDS011;5382;42.136;24.796;2023-04-25T09:50:37;3.90;;;3.25;;
10667;SDS011;5382;42.136;24.796;2023-04-25T09:53:04;6.68;;;2.60;;
10667;SDS011;5382;42.136;24.796;2023-04-25T09:55:34;4.05;;;3.08;;
10667;SDS011;5382;42.136;24.796;2023-04-25T09:58:03;7.75;;;6.18;;
10667;SDS011;5382;42.136;24.796;2023-04-25T10:00:32;4.68;;;2.85;;
10667;SDS011;5382;42.136;24.796;2023-04-25T10:03:00;5.63;;;2.88;;
10667;SDS011;5382;42.136;24.796;2023-04-25T10:05:29;2.97;;;2.25;;
10667;SDS011;5382;42.136;24.796;2023-04-25T10:07:58;2.40;;;1.90;;
10667;SDS011;5382;42.136;24.796;2023-04-25T10:10:28;3.00;;;2.03;;
10667;SDS011;5382;42.136;24.796;2023-04-25T10:13:02;2.80;;;2.20;;
10667;SDS011;5382;42.136;24.796;2023-04-25T10:15:31;3.13;;;2.38;;
10667;SDS011;5382;42.136;24.796;2023-04-25T10:18:00;2.75;;;2.22;;
10667;SDS011;5382;42.136;24.796;2023-04-25T10:20:27;3.10;;;2.42;;
10667;SDS011;5382;42.136;24.796;2023-04-25T10:22:54;4.03;;;2.38;;
10667;SDS011;5382;42.136;24.796;2023-04-25T10:25:24;3.15;;;2.45;;
10667;SDS011;5382;42.136;24.796;2023-04-25T10:27:52;7.40;;;2.50;;
10667;SDS011;5382;42.136;24.796;2023-04-25T10:30:21;3.22;;;2.40;;
10667;SDS011;5382;42.136;24.796;2023-04-25T10:32:47;3.35;;;2.67;;
10667;SDS011;5382;42.136;24.796;2023-04-25T10:35:16;2.42;;;2.22;;
10667;SDS011;5382;42.136;24.796;2023-04-25T10:37:57;2.50;;;2.30;;
10667;SDS011;5382;42.136;24.796;2023-04-25T10:40:24;2.50;;;2.30;;
10667;SDS011;5382;42.136;24.796;2023-04-25T10:42:51;5.32;;;2.58;;
10667;SDS011;5382;42.136;24.796;2023-04-25T10:45:20;3.78;;;2.75;;
10667;SDS011;5382;42.136;24.796;2023-04-25T10:47:48;3.13;;;2.60;;
10667;SDS011;5382;42.136;24.796;2023-04-25T10:50:14;5.22;;;2.30;;
10667;SDS011;5382;42.136;24.796;2023-04-25T10:52:42;3.60;;;2.33;;
10667;SDS011;5382;42.136;24.796;2023-04-25T10:55:09;2.47;;;2.00;;
10667;SDS011;5382;42.136;24.796;2023-04-25T10:57:37;2.55;;;2.35;;
10667;SDS011;5382;42.136;24.796;2023-04-25T11:00:07;2.90;;;2.60;;
10667;SDS011;5382;42.136;24.796;2023-04-25T11:02:38;3.47;;;2.60;;
10667;SDS011;5382;42.136;24.796;2023-04-25T11:05:08;3.15;;;2.80;;
10667;SDS011;5382;42.136;24.796;2023-04-25T11:07:37;3.63;;;2.42;;
10667;SDS011;5382;42.136;24.796;2023-04-25T11:10:08;3.53;;;2.83;;
10667;SDS011;5382;42.136;24.796;2023-04-25T11:12:35;5.35;;;3.20;;
10667;SDS011;5382;42.136;24.796;2023-04-25T11:15:03;3.70;;;2.80;;
10667;SDS011;5382;42.136;24.796;2023-04-25T11:17:31;3.70;;;3.00;;
10667;SDS011;5382;42.136;24.796;2023-04-25T11:20:00;5.15;;;3.15;;
10667;SDS011;5382;42.136;24.796;2023-04-25T11:22:31;5.57;;;2.90;;
10667;SDS011;5382;42.136;24.796;2023-04-25T11:24:58;5.18;;;3.25;;
10667;SDS011;5382;42.136;24.796;2023-04-25T11:27:30;4.22;;;3.00;;
10667;SDS011;5382;42.136;24.796;2023-04-25T11:29:57;4.13;;;3.10;;
10667;SDS011;5382;42.136;24.796;2023-04-25T11:32:23;6.07;;;3.10;;
10667;SDS011;5382;42.136;24.796;2023-04-25T11:34:50;3.22;;;2.70;;
10667;SDS011;5382;42.136;24.796;2023-04-25T11:37:20;3.65;;;2.80;;
10667;SDS011;5382;42.136;24.796;2023-04-25T11:39:47;3.92;;;2.63;;
10667;SDS011;5382;42.136;24.796;2023-04-25T11:42:14;4.63;;;2.88;;
10667;SDS011;5382;42.136;24.796;2023-04-25T11:44:41;4.22;;;2.83;;
10667;SDS011;5382;42.136;24.796;2023-04-25T11:47:08;3.58;;;2.92;;
10667;SDS011;5382;42.136;24.796;2023-04-25T11:49:35;5.38;;;3.20;;
10667;SDS011;5382;42.136;24.796;2023-04-25T11:52:02;4.95;;;2.90;;
10667;SDS011;5382;42.136;24.796;2023-04-25T11:54:30;3.80;;;2.75;;
10667;SDS011;5382;42.136;24.796;2023-04-25T11:56:57;2.88;;;2.50;;
10667;SDS011;5382;42.136;24.796;2023-04-25T11:59:24;3.42;;;2.70;;
10667;SDS011;5382;42.136;24.796;2023-04-25T12:01:52;3.13;;;2.55;;
10667;SDS011;5382;42.136;24.796;2023-04-25T12:04:20;4.32;;;2.85;;
10667;SDS011;5382;42.136;24.796;2023-04-25T12:06:48;2.75;;;2.40;;
10667;SDS011;5382;42.136;24.796;2023-04-25T12:09:16;2.80;;;2.40;;
10667;SDS011;5382;42.136;24.796;2023-04-25T12:11:48;21.38;;;3.75;;
10667;SDS011;5382;42.136;24.796;2023-04-25T12:14:21;3.28;;;2.40;;
10667;SDS011;5382;42.136;24.796;2023-04-25T12:16:50;3.38;;;2.22;;
10667;SDS011;5382;42.136;24.796;2023-04-25T12:19:19;2.83;;;2.63;;
10667;SDS011;5382;42.136;24.796;2023-04-25T12:21:46;4.57;;;2.60;;
10667;SDS011;5382;42.136;24.796;2023-04-25T12:24:14;4.82;;;2.38;;
10667;SDS011;5382;42.136;24.796;2023-04-25T12:26:50;2.95;;;2.40;;
10667;SDS011;5382;42.136;24.796;2023-04-25T12:29:18;2.42;;;2.22;;
10667;SDS011;5382;42.136;24.796;2023-04-25T12:31:46;3.72;;;2.25;;
10667;SDS011;5382;42.136;24.796;2023-04-25T12:34:13;2.67;;;2.10;;
10667;SDS011;5382;42.136;24.796;2023-04-25T12:36:41;4.65;;;2.42;;
10667;SDS011;5382;42.136;24.796;2023-04-25T12:39:08;4.15;;;1.92;;
10667;SDS011;5382;42.136;24.796;2023-04-25T12:41:35;2.70;;;2.00;;
10667;SDS011;5382;42.136;24.796;2023-04-25T12:44:04;2.25;;;1.95;;
10667;SDS011;5382;42.136;24.796;2023-04-25T12:46:30;2.58;;;2.00;;
10667;SDS011;5382;42.136;24.796;2023-04-25T12:48:57;2.78;;;1.73;;
10667;SDS011;5382;42.136;24.796;2023-04-25T12:51:25;2.40;;;1.90;;
10667;SDS011;5382;42.136;24.796;2023-04-25T12:53:53;2.92;;;2.13;;
10667;SDS011;5382;42.136;24.796;2023-04-25T12:56:19;2.08;;;1.85;;
10667;SDS011;5382;42.136;24.796;2023-04-25T12:58:46;3.50;;;2.35;;
10667;SDS011;5382;42.136;24.796;2023-04-25T13:01:15;4.10;;;2.60;;
10667;SDS011;5382;42.136;24.796;2023-04-25T13:03:42;4.70;;;2.40;;
10667;SDS011;5382;42.136;24.796;2023-04-25T13:06:09;3.80;;;2.38;;
10667;SDS011;5382;42.136;24.796;2023-04-25T13:08:38;3.83;;;2.22;;
10667;SDS011;5382;42.136;24.796;2023-04-25T13:11:06;3.35;;;2.38;;
10667;SDS011;5382;42.136;24.796;2023-04-25T13:13:33;2.42;;;2.22;;
10667;SDS011;5382;42.136;24.796;2023-04-25T13:16:00;2.10;;;1.90;;
10667;SDS011;5382;42.136;24.796;2023-04-25T13:18:28;2.85;;;1.90;;
10667;SDS011;5382;42.136;24.796;2023-04-25T13:20:55;2.50;;;2.30;;
10667;SDS011;5382;42.136;24.796;2023-04-25T13:23:22;4.25;;;2.72;;
10667;SDS011;5382;42.136;24.796;2023-04-25T13:25:51;3.03;;;2.50;;
10667;SDS011;5382;42.136;24.796;2023-04-25T13:28:18;3.15;;;2.42;;
10667;SDS011;5382;42.136;24.796;2023-04-25T13:30:45;2.88;;;1.75;;
10667;SDS011;5382;42.136;24.796;2023-04-25T13:33:13;3.65;;;1.70;;
10667;SDS011;5382;42.136;24.796;2023-04-25T13:35:41;2.05;;;1.73;;
10667;SDS011;5382;42.136;24.796;2023-04-25T13:38:08;2.80;;;1.60;;
10667;SDS011;5382;42.136;24.796;2023-04-25T13:40:35;1.35;;;1.13;;
10667;SDS011;5382;42.136;24.796;2023-04-25T13:43:02;2.88;;;1.58;;
10667;SDS011;5382;42.136;24.796;2023-04-25T13:45:29;1.42;;;1.23;;
10667;SDS011;5382;42.136;24.796;2023-04-25T13:47:56;2.13;;;1.40;;
10667;SDS011;5382;42.136;24.796;2023-04-25T13:50:22;2.08;;;1.50;;
10667;SDS011;5382;42.136;24.796;2023-04-25T13:52:51;3.17;;;1.38;;
10667;SDS011;5382;42.136;24.796;2023-04-25T13:55:17;4.55;;;1.45;;
10667;SDS011;5382;42.136;24.796;2023-04-25T13:57:44;3.78;;;1.38;;
10667;SDS011;5382;42.136;24.796;2023-04-25T14:00:12;2.13;;;1.08;;
10667;SDS011;5382;42.136;24.796;2023-04-25T14:02:39;1.40;;;1.27;;
10667;SDS011;5382;42.136;24.796;2023-04-25T14:05:06;1.10;;;0.98;;
10667;SDS011;5382;42.136;24.796;2023-04-25T14:07:34;4.93;;;1.20;;
10667;SDS011;5382;42.136;24.796;2023-04-25T14:10:02;1.80;;;0.90;;
10667;SDS011;5382;42.136;24.796;2023-04-25T14:12:30;1.27;;;1.02;;
10667;SDS011;5382;42.136;24.796;2023-04-25T14:14:57;1.15;;;0.90;;
10667;SDS011;5382;42.136;24.796;2023-04-25T14:17:24;2.75;;;1.10;;
10667;SDS011;5382;42.136;24.796;2023-04-25T14:19:51;2.20;;;1.00;;
10667;SDS011;5382;42.136;24.796;2023-04-25T14:22:17;2.30;;;1.38;;
10667;SDS011;5382;42.136;24.796;2023-04-25T14:24:44;1.20;;;1.10;;
10667;SDS011;5382;42.136;24.796;2023-04-25T14:30:01;2.85;;;1.27;;
10667;SDS011;5382;42.136;24.796;2023-04-25T14:32:28;4.90;;;1.33;;
10667;SDS011;5382;42.136;24.796;2023-04-25T14:34:54;1.83;;;1.08;;
10667;SDS011;5382;42.136;24.796;2023-04-25T14:37:21;2.05;;;1.02;;
10667;SDS011;5382;42.136;24.796;2023-04-25T14:39:48;3.30;;;1.33;;
10667;SDS011;5382;42.136;24.796;2023-04-25T14:42:14;1.50;;;1.40;;
10667;SDS011;5382;42.136;24.796;2023-04-25T14:44:41;1.98;;;0.90;;
10667;SDS011;5382;42.136;24.796;2023-04-25T14:47:09;1.70;;;1.30;;
10667;SDS011;5382;42.136;24.796;2023-04-25T14:49:36;1.35;;;1.00;;